sensor_id;sensor_type;location;lat;lon;timestamp;temperature;humidity
14737;DHT22;7459;53.590;10.062;2024-01-27T00:00:18;6.10;99.90
14737;DHT22;7459;53.590;10.062;2024-01-27T00:02:44;6.10;99.90
14737;DHT22;7459;53.590;10.062;2024-01-27T00:05:10;6.10;99.90
14737;DHT22;7459;53.590;10.062;2024-01-27T00:07:35;6.10;99.90
14737;DHT22;7459;53.590;10.062;2024-01-27T00:10:02;6.10;99.90
14737;DHT22;7459;53.590;10.062;2024-01-27T00:12:28;6.10;99.90
14737;DHT22;7459;53.590;10.062;2024-01-27T00:14:53;6.10;99.90
14737;DHT22;7459;53.590;10.062;2024-01-27T00:17:19;6.10;99.90
14737;DHT22;7459;53.590;10.062;2024-01-27T00:19:49;6.10;99.90
14737;DHT22;7459;53.590;10.062;2024-01-27T00:22:15;6.10;99.90
14737;DHT22;7459;53.590;10.062;2024-01-27T00:24:42;6.10;99.90
14737;DHT22;7459;53.590;10.062;2024-01-27T00:27:08;6.10;99.90
14737;DHT22;7459;53.590;10.062;2024-01-27T00:29:34;6.10;99.90
14737;DHT22;7459;53.590;10.062;2024-01-27T00:32:00;6.10;99.90
14737;DHT22;7459;53.590;10.062;2024-01-27T00:34:25;6.10;99.90
14737;DHT22;7459;53.590;10.062;2024-01-27T00:36:51;6.10;99.90
14737;DHT22;7459;53.590;10.062;2024-01-27T00:39:18;6.10;99.90
14737;DHT22;7459;53.590;10.062;2024-01-27T00:41:44;6.10;99.90
14737;DHT22;7459;53.590;10.062;2024-01-27T00:44:10;6.10;99.90
14737;DHT22;7459;53.590;10.062;2024-01-27T00:46:39;6.10;99.90
14737;DHT22;7459;53.590;10.062;2024-01-27T00:49:05;6.10;99.90
14737;DHT22;7459;53.590;10.062;2024-01-27T00:51:30;6.10;99.90
14737;DHT22;7459;53.590;10.062;2024-01-27T00:53:56;6.20;99.90
14737;DHT22;7459;53.590;10.062;2024-01-27T00:56:22;6.20;99.90
14737;DHT22;7459;53.590;10.062;2024-01-27T00:58:47;6.20;99.90
14737;DHT22;7459;53.590;10.062;2024-01-27T01:01:13;6.20;99.90
14737;DHT22;7459;53.590;10.062;2024-01-27T01:03:39;6.20;99.90
14737;DHT22;7459;53.590;10.062;2024-01-27T01:06:04;6.10;99.90
14737;DHT22;7459;53.590;10.062;2024-01-27T01:08:31;6.20;99.90
14737;DHT22;7459;53.590;10.062;2024-01-27T01:10:57;6.20;99.90
14737;DHT22;7459;53.590;10.062;2024-01-27T01:13:23;6.20;99.90
14737;DHT22;7459;53.590;10.062;2024-01-27T01:15:49;6.20;99.90
14737;DHT22;7459;53.590;10.062;2024-01-27T01:18:14;6.10;99.90
14737;DHT22;7459;53.590;10.062;2024-01-27T01:20:40;6.20;99.90
14737;DHT22;7459;53.590;10.062;2024-01-27T01:23:06;6.20;99.90
14737;DHT22;7459;53.590;10.062;2024-01-27T01:25:32;6.20;99.90
14737;DHT22;7459;53.590;10.062;2024-01-27T01:27:58;6.20;99.90
14737;DHT22;7459;53.590;10.062;2024-01-27T01:30:23;6.20;99.90
14737;DHT22;7459;53.590;10.062;2024-01-27T01:32:49;6.20;99.90
14737;DHT22;7459;53.590;10.062;2024-01-27T01:35:15;6.20;99.90
14737;DHT22;7459;53.590;10.062;2024-01-27T01:37:41;6.20;99.90
14737;DHT22;7459;53.590;10.062;2024-01-27T01:40:07;6.20;99.90
14737;DHT22;7459;53.590;10.062;2024-01-27T01:42:33;6.20;99.90
14737;DHT22;7459;53.590;10.062;2024-01-27T01:44:59;6.20;99.90
14737;DHT22;7459;53.590;10.062;2024-01-27T01:47:25;6.20;99.90
14737;DHT22;7459;53.590;10.062;2024-01-27T01:49:52;6.20;99.90
14737;DHT22;7459;53.590;10.062;2024-01-27T01:52:20;6.20;99.90
14737;DHT22;7459;53.590;10.062;2024-01-27T01:54:48;6.20;99.90
14737;DHT22;7459;53.590;10.062;2024-01-27T01:57:15;6.20;99.90
14737;DHT22;7459;53.590;10.062;2024-01-27T01:59:41;6.20;99.90
14737;DHT22;7459;53.590;10.062;2024-01-27T02:02:08;6.20;99.90
14737;DHT22;7459;53.590;10.062;2024-01-27T02:04:44;6.20;99.90
14737;DHT22;7459;53.590;10.062;2024-01-27T02:07:13;6.20;99.90
14737;DHT22;7459;53.590;10.062;2024-01-27T02:09:39;6.20;99.90
14737;DHT22;7459;53.590;10.062;2024-01-27T02:12:05;6.20;99.90
14737;DHT22;7459;53.590;10.062;2024-01-27T02:14:31;6.20;99.90
14737;DHT22;7459;53.590;10.062;2024-01-27T02:16:57;6.30;99.90
14737;DHT22;7459;53.590;10.062;2024-01-27T02:19:23;6.30;99.90
14737;DHT22;7459;53.590;10.062;2024-01-27T02:21:49;6.30;99.90
14737;DHT22;7459;53.590;10.062;2024-01-27T02:24:15;6.20;99.90
14737;DHT22;7459;53.590;10.062;2024-01-27T02:26:41;6.30;99.90
14737;DHT22;7459;53.590;10.062;2024-01-27T02:29:06;6.20;99.90
14737;DHT22;7459;53.590;10.062;2024-01-27T02:31:32;6.20;99.90
14737;DHT22;7459;53.590;10.062;2024-01-27T02:33:58;6.30;99.90
14737;DHT22;7459;53.590;10.062;2024-01-27T02:36:23;6.30;99.90
14737;DHT22;7459;53.590;10.062;2024-01-27T02:38:49;6.20;99.90
14737;DHT22;7459;53.590;10.062;2024-01-27T02:41:15;6.30;99.90
14737;DHT22;7459;53.590;10.062;2024-01-27T02:43:40;6.20;99.90
14737;DHT22;7459;53.590;10.062;2024-01-27T02:46:12;6.30;99.90
14737;DHT22;7459;53.590;10.062;2024-01-27T02:48:43;6.30;99.90
14737;DHT22;7459;53.590;10.062;2024-01-27T02:51:10;6.20;99.90
14737;DHT22;7459;53.590;10.062;2024-01-27T02:53:36;6.20;99.90
14737;DHT22;7459;53.590;10.062;2024-01-27T02:56:02;6.20;99.90
14737;DHT22;7459;53.590;10.062;2024-01-27T02:58:27;6.20;99.90
14737;DHT22;7459;53.590;10.062;2024-01-27T03:00:53;6.20;99.90
14737;DHT22;7459;53.590;10.062;2024-01-27T03:03:19;6.20;99.90
14737;DHT22;7459;53.590;10.062;2024-01-27T03:05:45;6.20;99.90
14737;DHT22;7459;53.590;10.062;2024-01-27T03:08:10;6.10;99.90
14737;DHT22;7459;53.590;10.062;2024-01-27T03:10:36;6.20;99.90
14737;DHT22;7459;53.590;10.062;2024-01-27T03:13:02;6.20;99.90
14737;DHT22;7459;53.590;10.062;2024-01-27T03:15:28;6.20;99.90
14737;DHT22;7459;53.590;10.062;2024-01-27T03:17:53;6.20;99.90
14737;DHT22;7459;53.590;10.062;2024-01-27T03:20:19;6.10;99.90
14737;DHT22;7459;53.590;10.062;2024-01-27T03:22:45;6.10;99.90
14737;DHT22;7459;53.590;10.062;2024-01-27T03:25:10;6.10;99.90
14737;DHT22;7459;53.590;10.062;2024-01-27T03:27:36;6.10;99.90
14737;DHT22;7459;53.590;10.062;2024-01-27T03:30:02;6.10;99.90
14737;DHT22;7459;53.590;10.062;2024-01-27T03:32:29;6.10;99.90
14737;DHT22;7459;53.590;10.062;2024-01-27T03:35:02;6.00;99.90
14737;DHT22;7459;53.590;10.062;2024-01-27T03:37:28;6.00;99.90
14737;DHT22;7459;53.590;10.062;2024-01-27T03:39:54;6.10;99.90
14737;DHT22;7459;53.590;10.062;2024-01-27T03:42:19;6.00;99.90
14737;DHT22;7459;53.590;10.062;2024-01-27T03:44:45;6.00;99.90
14737;DHT22;7459;53.590;10.062;2024-01-27T03:47:11;6.10;99.90
14737;DHT22;7459;53.590;10.062;2024-01-27T03:49:37;6.10;99.90
14737;DHT22;7459;53.590;10.062;2024-01-27T03:52:03;6.00;99.90
14737;DHT22;7459;53.590;10.062;2024-01-27T03:54:29;6.00;99.90
14737;DHT22;7459;53.590;10.062;2024-01-27T03:56:55;6.10;99.90
14737;DHT22;7459;53.590;10.062;2024-01-27T03:59:20;6.00;99.90
14737;DHT22;7459;53.590;10.062;2024-01-27T04:01:47;6.00;99.90
14737;DHT22;7459;53.590;10.062;2024-01-27T04:04:13;6.00;99.90
14737;DHT22;7459;53.590;10.062;2024-01-27T04:06:41;6.00;99.90
14737;DHT22;7459;53.590;10.062;2024-01-27T04:09:08;6.00;99.90
14737;DHT22;7459;53.590;10.062;2024-01-27T04:11:37;6.00;99.90
14737;DHT22;7459;53.590;10.062;2024-01-27T04:14:04;6.00;99.90
14737;DHT22;7459;53.590;10.062;2024-01-27T04:16:30;6.00;99.90
14737;DHT22;7459;53.590;10.062;2024-01-27T04:18:56;6.00;99.90
14737;DHT22;7459;53.590;10.062;2024-01-27T04:21:22;6.00;99.90
14737;DHT22;7459;53.590;10.062;2024-01-27T04:23:48;5.90;99.90
14737;DHT22;7459;53.590;10.062;2024-01-27T04:26:13;6.00;99.90
14737;DHT22;7459;53.590;10.062;2024-01-27T04:28:39;5.90;99.90
14737;DHT22;7459;53.590;10.062;2024-01-27T04:31:05;5.90;99.90
14737;DHT22;7459;53.590;10.062;2024-01-27T04:33:31;5.90;99.90
14737;DHT22;7459;53.590;10.062;2024-01-27T04:35:57;5.90;99.90
14737;DHT22;7459;53.590;10.062;2024-01-27T04:38:22;5.90;99.90
14737;DHT22;7459;53.590;10.062;2024-01-27T04:40:50;5.90;99.90
14737;DHT22;7459;53.590;10.062;2024-01-27T04:43:17;5.90;99.90
14737;DHT22;7459;53.590;10.062;2024-01-27T04:45:43;5.90;99.90
14737;DHT22;7459;53.590;10.062;2024-01-27T04:48:09;5.80;99.90
14737;DHT22;7459;53.590;10.062;2024-01-27T04:50:35;5.90;99.90
14737;DHT22;7459;53.590;10.062;2024-01-27T04:53:01;5.80;99.90
14737;DHT22;7459;53.590;10.062;2024-01-27T04:55:27;5.80;99.90
14737;DHT22;7459;53.590;10.062;2024-01-27T04:57:53;5.80;99.90
14737;DHT22;7459;53.590;10.062;2024-01-27T05:00:19;5.80;99.90
14737;DHT22;7459;53.590;10.062;2024-01-27T05:02:45;5.80;99.90
14737;DHT22;7459;53.590;10.062;2024-01-27T05:05:11;5.80;99.90
14737;DHT22;7459;53.590;10.062;2024-01-27T05:07:38;5.70;99.90
14737;DHT22;7459;53.590;10.062;2024-01-27T05:10:04;5.80;99.90
14737;DHT22;7459;53.590;10.062;2024-01-27T05:12:30;5.80;99.90
14737;DHT22;7459;53.590;10.062;2024-01-27T05:14:56;5.70;99.90
14737;DHT22;7459;53.590;10.062;2024-01-27T05:17:22;5.80;99.90
14737;DHT22;7459;53.590;10.062;2024-01-27T05:19:49;5.70;99.90
14737;DHT22;7459;53.590;10.062;2024-01-27T05:22:15;5.70;99.90
14737;DHT22;7459;53.590;10.062;2024-01-27T05:24:40;5.70;99.90
14737;DHT22;7459;53.590;10.062;2024-01-27T05:27:06;5.60;99.90
14737;DHT22;7459;53.590;10.062;2024-01-27T05:29:32;5.60;99.90
14737;DHT22;7459;53.590;10.062;2024-01-27T05:31:58;5.60;99.90
14737;DHT22;7459;53.590;10.062;2024-01-27T05:34:23;5.60;99.90
14737;DHT22;7459;53.590;10.062;2024-01-27T05:36:49;5.50;99.90
14737;DHT22;7459;53.590;10.062;2024-01-27T05:39:15;5.50;99.90
14737;DHT22;7459;53.590;10.062;2024-01-27T05:41:40;5.50;99.90
14737;DHT22;7459;53.590;10.062;2024-01-27T05:44:06;5.50;99.90
14737;DHT22;7459;53.590;10.062;2024-01-27T05:46:32;5.50;99.90
14737;DHT22;7459;53.590;10.062;2024-01-27T05:48:57;5.40;99.90
14737;DHT22;7459;53.590;10.062;2024-01-27T05:51:28;5.40;99.90
14737;DHT22;7459;53.590;10.062;2024-01-27T05:53:54;5.40;99.90
14737;DHT22;7459;53.590;10.062;2024-01-27T05:56:20;5.40;99.90
14737;DHT22;7459;53.590;10.062;2024-01-27T05:58:46;5.40;99.90
14737;DHT22;7459;53.590;10.062;2024-01-27T06:01:12;5.40;99.90
14737;DHT22;7459;53.590;10.062;2024-01-27T06:03:37;5.40;99.90
14737;DHT22;7459;53.590;10.062;2024-01-27T06:06:03;5.40;99.90
14737;DHT22;7459;53.590;10.062;2024-01-27T06:08:29;5.40;99.90
14737;DHT22;7459;53.590;10.062;2024-01-27T06:10:55;5.40;99.90
14737;DHT22;7459;53.590;10.062;2024-01-27T06:13:20;5.30;99.90
14737;DHT22;7459;53.590;10.062;2024-01-27T06:15:46;5.30;99.90
14737;DHT22;7459;53.590;10.062;2024-01-27T06:18:12;5.30;99.90
14737;DHT22;7459;53.590;10.062;2024-01-27T06:20:37;5.30;99.90
14737;DHT22;7459;53.590;10.062;2024-01-27T06:23:05;5.30;99.90
14737;DHT22;7459;53.590;10.062;2024-01-27T06:25:32;5.40;99.90
14737;DHT22;7459;53.590;10.062;2024-01-27T06:27:58;5.40;99.90
14737;DHT22;7459;53.590;10.062;2024-01-27T06:30:24;5.30;99.90
14737;DHT22;7459;53.590;10.062;2024-01-27T06:32:50;5.40;99.90
14737;DHT22;7459;53.590;10.062;2024-01-27T06:35:15;5.40;99.90
14737;DHT22;7459;53.590;10.062;2024-01-27T06:37:41;5.40;99.90
14737;DHT22;7459;53.590;10.062;2024-01-27T06:40:07;5.30;99.90
14737;DHT22;7459;53.590;10.062;2024-01-27T06:42:34;5.30;99.90
14737;DHT22;7459;53.590;10.062;2024-01-27T06:45:02;5.30;99.90
14737;DHT22;7459;53.590;10.062;2024-01-27T06:47:29;5.30;99.90
14737;DHT22;7459;53.590;10.062;2024-01-27T06:49:55;5.30;99.90
14737;DHT22;7459;53.590;10.062;2024-01-27T06:52:21;5.30;99.90
14737;DHT22;7459;53.590;10.062;2024-01-27T06:54:46;5.30;99.90
14737;DHT22;7459;53.590;10.062;2024-01-27T06:57:24;5.20;99.90
14737;DHT22;7459;53.590;10.062;2024-01-27T06:59:51;5.20;99.90
14737;DHT22;7459;53.590;10.062;2024-01-27T07:02:24;5.20;99.90
14737;DHT22;7459;53.590;10.062;2024-01-27T07:04:51;5.20;99.90
14737;DHT22;7459;53.590;10.062;2024-01-27T07:07:18;5.20;99.90
14737;DHT22;7459;53.590;10.062;2024-01-27T07:09:49;5.20;99.90
14737;DHT22;7459;53.590;10.062;2024-01-27T07:12:15;5.20;99.90
14737;DHT22;7459;53.590;10.062;2024-01-27T07:14:41;5.20;99.90
14737;DHT22;7459;53.590;10.062;2024-01-27T07:17:06;5.20;99.90
14737;DHT22;7459;53.590;10.062;2024-01-27T07:19:32;5.20;99.90
14737;DHT22;7459;53.590;10.062;2024-01-27T07:21:58;5.20;99.90
14737;DHT22;7459;53.590;10.062;2024-01-27T07:24:25;5.20;99.90
14737;DHT22;7459;53.590;10.062;2024-01-27T07:26:51;5.10;99.90
14737;DHT22;7459;53.590;10.062;2024-01-27T07:29:17;5.10;99.90
14737;DHT22;7459;53.590;10.062;2024-01-27T07:31:42;5.10;99.90
14737;DHT22;7459;53.590;10.062;2024-01-27T07:34:08;5.00;99.90
14737;DHT22;7459;53.590;10.062;2024-01-27T07:36:34;5.00;99.90
14737;DHT22;7459;53.590;10.062;2024-01-27T07:39:00;5.00;99.90
14737;DHT22;7459;53.590;10.062;2024-01-27T07:41:25;5.00;99.90
14737;DHT22;7459;53.590;10.062;2024-01-27T07:43:51;5.00;99.90
14737;DHT22;7459;53.590;10.062;2024-01-27T07:46:17;5.00;99.90
14737;DHT22;7459;53.590;10.062;2024-01-27T07:48:47;5.00;99.90
14737;DHT22;7459;53.590;10.062;2024-01-27T07:51:13;5.00;99.90
14737;DHT22;7459;53.590;10.062;2024-01-27T07:53:38;5.00;99.90
14737;DHT22;7459;53.590;10.062;2024-01-27T07:56:04;5.00;99.90
14737;DHT22;7459;53.590;10.062;2024-01-27T07:58:30;4.90;99.90
14737;DHT22;7459;53.590;10.062;2024-01-27T08:00:56;4.90;99.90
14737;DHT22;7459;53.590;10.062;2024-01-27T08:03:22;5.00;99.90
14737;DHT22;7459;53.590;10.062;2024-01-27T08:05:47;5.00;99.90
14737;DHT22;7459;53.590;10.062;2024-01-27T08:08:13;5.10;99.90
14737;DHT22;7459;53.590;10.062;2024-01-27T08:10:39;5.10;99.90
14737;DHT22;7459;53.590;10.062;2024-01-27T08:13:05;5.20;99.90
14737;DHT22;7459;53.590;10.062;2024-01-27T08:15:32;5.10;99.90
14737;DHT22;7459;53.590;10.062;2024-01-27T08:17:57;5.10;99.90
14737;DHT22;7459;53.590;10.062;2024-01-27T08:20:23;5.10;99.90
14737;DHT22;7459;53.590;10.062;2024-01-27T08:22:49;5.10;99.90
14737;DHT22;7459;53.590;10.062;2024-01-27T08:25:17;5.00;99.90
14737;DHT22;7459;53.590;10.062;2024-01-27T08:27:43;5.10;99.90
14737;DHT22;7459;53.590;10.062;2024-01-27T08:30:09;5.10;99.90
14737;DHT22;7459;53.590;10.062;2024-01-27T08:32:36;5.10;99.90
14737;DHT22;7459;53.590;10.062;2024-01-27T08:35:01;5.10;99.90
14737;DHT22;7459;53.590;10.062;2024-01-27T08:37:27;5.10;99.90
14737;DHT22;7459;53.590;10.062;2024-01-27T08:39:53;5.10;99.90
14737;DHT22;7459;53.590;10.062;2024-01-27T08:42:19;5.20;99.90
14737;DHT22;7459;53.590;10.062;2024-01-27T08:44:44;5.10;99.90
14737;DHT22;7459;53.590;10.062;2024-01-27T08:47:10;5.10;99.90
14737;DHT22;7459;53.590;10.062;2024-01-27T08:49:36;5.20;99.90
14737;DHT22;7459;53.590;10.062;2024-01-27T08:52:01;5.20;99.90
14737;DHT22;7459;53.590;10.062;2024-01-27T08:54:27;5.20;99.90
14737;DHT22;7459;53.590;10.062;2024-01-27T08:56:53;5.20;99.90
14737;DHT22;7459;53.590;10.062;2024-01-27T08:59:19;5.30;99.90
14737;DHT22;7459;53.590;10.062;2024-01-27T09:01:44;5.30;99.90
14737;DHT22;7459;53.590;10.062;2024-01-27T09:04:10;5.30;99.90
14737;DHT22;7459;53.590;10.062;2024-01-27T09:06:36;5.30;99.90
14737;DHT22;7459;53.590;10.062;2024-01-27T09:09:01;5.30;99.90
14737;DHT22;7459;53.590;10.062;2024-01-27T09:11:28;5.30;99.90
14737;DHT22;7459;53.590;10.062;2024-01-27T09:13:55;5.40;99.90
14737;DHT22;7459;53.590;10.062;2024-01-27T09:16:21;5.40;99.90
14737;DHT22;7459;53.590;10.062;2024-01-27T09:18:47;5.40;99.90
14737;DHT22;7459;53.590;10.062;2024-01-27T09:21:15;5.40;99.90
14737;DHT22;7459;53.590;10.062;2024-01-27T09:23:49;5.40;99.90
14737;DHT22;7459;53.590;10.062;2024-01-27T09:26:14;5.40;99.90
14737;DHT22;7459;53.590;10.062;2024-01-27T09:28:43;5.40;99.90
14737;DHT22;7459;53.590;10.062;2024-01-27T09:31:11;5.40;99.90
14737;DHT22;7459;53.590;10.062;2024-01-27T09:33:37;5.40;99.90
14737;DHT22;7459;53.590;10.062;2024-01-27T09:36:03;5.40;99.90
14737;DHT22;7459;53.590;10.062;2024-01-27T09:38:29;5.40;99.90
14737;DHT22;7459;53.590;10.062;2024-01-27T09:40:55;5.40;99.90
14737;DHT22;7459;53.590;10.062;2024-01-27T09:43:21;5.40;99.90
14737;DHT22;7459;53.590;10.062;2024-01-27T09:45:47;5.40;99.90
14737;DHT22;7459;53.590;10.062;2024-01-27T09:48:13;5.40;99.90
14737;DHT22;7459;53.590;10.062;2024-01-27T09:50:43;5.40;99.90
14737;DHT22;7459;53.590;10.062;2024-01-27T09:53:10;5.50;99.90
14737;DHT22;7459;53.590;10.062;2024-01-27T09:55:37;5.50;99.90
14737;DHT22;7459;53.590;10.062;2024-01-27T09:58:03;5.50;99.90
14737;DHT22;7459;53.590;10.062;2024-01-27T10:00:29;5.50;99.90
14737;DHT22;7459;53.590;10.062;2024-01-27T10:02:56;5.50;99.90
14737;DHT22;7459;53.590;10.062;2024-01-27T10:05:23;5.60;99.90
14737;DHT22;7459;53.590;10.062;2024-01-27T10:07:49;5.50;99.90
14737;DHT22;7459;53.590;10.062;2024-01-27T10:10:14;5.60;99.90
14737;DHT22;7459;53.590;10.062;2024-01-27T10:12:41;5.60;99.90
14737;DHT22;7459;53.590;10.062;2024-01-27T10:15:18;5.70;99.90
14737;DHT22;7459;53.590;10.062;2024-01-27T10:17:45;5.70;99.90
14737;DHT22;7459;53.590;10.062;2024-01-27T10:20:11;5.70;99.90
14737;DHT22;7459;53.590;10.062;2024-01-27T10:22:41;5.70;99.90
14737;DHT22;7459;53.590;10.062;2024-01-27T10:25:08;5.70;99.90
14737;DHT22;7459;53.590;10.062;2024-01-27T10:27:37;5.70;99.90
14737;DHT22;7459;53.590;10.062;2024-01-27T10:30:04;5.80;99.90
14737;DHT22;7459;53.590;10.062;2024-01-27T10:32:30;5.80;99.90
14737;DHT22;7459;53.590;10.062;2024-01-27T10:35:05;5.80;99.90
14737;DHT22;7459;53.590;10.062;2024-01-27T10:37:38;5.80;99.90
14737;DHT22;7459;53.590;10.062;2024-01-27T10:40:07;5.80;99.90
14737;DHT22;7459;53.590;10.062;2024-01-27T10:42:34;5.80;99.90
14737;DHT22;7459;53.590;10.062;2024-01-27T10:45:00;5.90;99.90
14737;DHT22;7459;53.590;10.062;2024-01-27T10:47:31;5.90;99.90
14737;DHT22;7459;53.590;10.062;2024-01-27T10:49:59;6.00;99.90
14737;DHT22;7459;53.590;10.062;2024-01-27T10:52:31;6.00;99.90
14737;DHT22;7459;53.590;10.062;2024-01-27T10:55:03;6.10;99.90
14737;DHT22;7459;53.590;10.062;2024-01-27T10:57:33;6.10;99.90
14737;DHT22;7459;53.590;10.062;2024-01-27T11:00:02;6.10;99.90
14737;DHT22;7459;53.590;10.062;2024-01-27T11:02:33;6.20;99.90
14737;DHT22;7459;53.590;10.062;2024-01-27T11:05:02;6.20;99.90
14737;DHT22;7459;53.590;10.062;2024-01-27T11:07:31;6.20;99.90
14737;DHT22;7459;53.590;10.062;2024-01-27T11:09:57;6.20;99.90
14737;DHT22;7459;53.590;10.062;2024-01-27T11:12:23;6.30;99.90
14737;DHT22;7459;53.590;10.062;2024-01-27T11:14:50;6.40;99.90
14737;DHT22;7459;53.590;10.062;2024-01-27T11:17:17;6.40;99.90
14737;DHT22;7459;53.590;10.062;2024-01-27T11:19:45;6.40;99.90
14737;DHT22;7459;53.590;10.062;2024-01-27T11:22:29;6.50;99.90
14737;DHT22;7459;53.590;10.062;2024-01-27T11:25:17;6.50;99.90
14737;DHT22;7459;53.590;10.062;2024-01-27T11:27:44;6.50;99.90
14737;DHT22;7459;53.590;10.062;2024-01-27T11:30:25;6.50;99.90
14737;DHT22;7459;53.590;10.062;2024-01-27T11:32:53;6.60;99.90
14737;DHT22;7459;53.590;10.062;2024-01-27T11:35:19;6.60;99.90
14737;DHT22;7459;53.590;10.062;2024-01-27T11:37:45;6.70;99.90
14737;DHT22;7459;53.590;10.062;2024-01-27T11:40:11;6.70;99.90
14737;DHT22;7459;53.590;10.062;2024-01-27T11:42:37;6.70;99.90
14737;DHT22;7459;53.590;10.062;2024-01-27T11:45:03;6.80;99.90
14737;DHT22;7459;53.590;10.062;2024-01-27T11:47:30;6.80;99.90
14737;DHT22;7459;53.590;10.062;2024-01-27T11:49:56;6.90;99.90
14737;DHT22;7459;53.590;10.062;2024-01-27T11:52:24;7.00;99.90
14737;DHT22;7459;53.590;10.062;2024-01-27T11:54:57;7.00;99.90
14737;DHT22;7459;53.590;10.062;2024-01-27T11:57:24;7.00;99.90
14737;DHT22;7459;53.590;10.062;2024-01-27T11:59:51;7.10;99.90
14737;DHT22;7459;53.590;10.062;2024-01-27T12:02:18;7.00;99.90
14737;DHT22;7459;53.590;10.062;2024-01-27T12:04:44;7.00;99.90
14737;DHT22;7459;53.590;10.062;2024-01-27T12:07:10;7.00;99.90
14737;DHT22;7459;53.590;10.062;2024-01-27T12:09:38;7.00;99.90
14737;DHT22;7459;53.590;10.062;2024-01-27T12:12:04;6.90;99.90
14737;DHT22;7459;53.590;10.062;2024-01-27T12:14:46;7.00;99.90
14737;DHT22;7459;53.590;10.062;2024-01-27T12:17:13;7.00;99.90
14737;DHT22;7459;53.590;10.062;2024-01-27T12:19:46;7.10;99.90
14737;DHT22;7459;53.590;10.062;2024-01-27T12:22:39;7.20;99.90
14737;DHT22;7459;53.590;10.062;2024-01-27T12:25:10;7.30;99.90
14737;DHT22;7459;53.590;10.062;2024-01-27T12:27:36;7.30;99.90
14737;DHT22;7459;53.590;10.062;2024-01-27T12:30:03;7.20;99.90
14737;DHT22;7459;53.590;10.062;2024-01-27T12:32:30;7.30;99.90
14737;DHT22;7459;53.590;10.062;2024-01-27T12:34:58;7.30;99.90
14737;DHT22;7459;53.590;10.062;2024-01-27T12:37:26;7.30;99.90
14737;DHT22;7459;53.590;10.062;2024-01-27T12:39:53;7.30;99.90
14737;DHT22;7459;53.590;10.062;2024-01-27T12:42:19;7.40;99.90
14737;DHT22;7459;53.590;10.062;2024-01-27T12:44:44;7.40;99.90
14737;DHT22;7459;53.590;10.062;2024-01-27T12:47:10;7.40;99.90
14737;DHT22;7459;53.590;10.062;2024-01-27T12:49:36;7.50;99.90
14737;DHT22;7459;53.590;10.062;2024-01-27T12:52:02;7.60;99.90
14737;DHT22;7459;53.590;10.062;2024-01-27T12:54:28;7.70;99.90
14737;DHT22;7459;53.590;10.062;2024-01-27T12:56:55;7.70;99.90
14737;DHT22;7459;53.590;10.062;2024-01-27T12:59:21;7.80;99.90
14737;DHT22;7459;53.590;10.062;2024-01-27T13:01:46;7.80;99.90
14737;DHT22;7459;53.590;10.062;2024-01-27T13:04:12;7.80;99.90
14737;DHT22;7459;53.590;10.062;2024-01-27T13:06:38;7.80;99.90
14737;DHT22;7459;53.590;10.062;2024-01-27T13:09:04;7.80;99.90
14737;DHT22;7459;53.590;10.062;2024-01-27T13:11:29;7.80;99.90
14737;DHT22;7459;53.590;10.062;2024-01-27T13:13:55;7.80;99.90
14737;DHT22;7459;53.590;10.062;2024-01-27T13:16:21;7.80;99.90
14737;DHT22;7459;53.590;10.062;2024-01-27T13:18:47;7.70;99.90
14737;DHT22;7459;53.590;10.062;2024-01-27T13:21:12;7.70;99.90
14737;DHT22;7459;53.590;10.062;2024-01-27T13:23:38;7.70;99.90
14737;DHT22;7459;53.590;10.062;2024-01-27T13:26:04;7.70;99.90
14737;DHT22;7459;53.590;10.062;2024-01-27T13:28:29;7.60;99.90
14737;DHT22;7459;53.590;10.062;2024-01-27T13:30:55;7.70;99.90
14737;DHT22;7459;53.590;10.062;2024-01-27T13:33:21;7.80;99.90
14737;DHT22;7459;53.590;10.062;2024-01-27T13:35:47;7.80;99.90
14737;DHT22;7459;53.590;10.062;2024-01-27T13:38:13;7.90;99.90
14737;DHT22;7459;53.590;10.062;2024-01-27T13:40:39;7.80;99.90
14737;DHT22;7459;53.590;10.062;2024-01-27T13:43:05;7.80;99.90
14737;DHT22;7459;53.590;10.062;2024-01-27T13:45:31;7.80;99.90
14737;DHT22;7459;53.590;10.062;2024-01-27T13:47:57;7.70;99.90
14737;DHT22;7459;53.590;10.062;2024-01-27T13:50:23;7.80;99.90
14737;DHT22;7459;53.590;10.062;2024-01-27T13:52:51;7.80;99.90
14737;DHT22;7459;53.590;10.062;2024-01-27T13:55:17;7.80;99.90
14737;DHT22;7459;53.590;10.062;2024-01-27T13:57:43;7.80;99.90
14737;DHT22;7459;53.590;10.062;2024-01-27T14:00:10;7.70;99.90
14737;DHT22;7459;53.590;10.062;2024-01-27T14:02:36;7.70;99.90
14737;DHT22;7459;53.590;10.062;2024-01-27T14:05:03;7.70;99.90
14737;DHT22;7459;53.590;10.062;2024-01-27T14:07:29;7.70;99.90
14737;DHT22;7459;53.590;10.062;2024-01-27T14:09:55;7.80;99.90
14737;DHT22;7459;53.590;10.062;2024-01-27T14:12:21;7.80;99.90
14737;DHT22;7459;53.590;10.062;2024-01-27T14:14:49;7.80;99.90
14737;DHT22;7459;53.590;10.062;2024-01-27T14:17:16;7.80;99.90
14737;DHT22;7459;53.590;10.062;2024-01-27T14:19:42;7.80;99.90
14737;DHT22;7459;53.590;10.062;2024-01-27T14:22:08;7.80;99.90
14737;DHT22;7459;53.590;10.062;2024-01-27T14:24:33;7.80;99.90
14737;DHT22;7459;53.590;10.062;2024-01-27T14:26:59;7.90;99.90
14737;DHT22;7459;53.590;10.062;2024-01-27T14:29:25;7.90;99.90
14737;DHT22;7459;53.590;10.062;2024-01-27T14:31:51;8.00;99.90
14737;DHT22;7459;53.590;10.062;2024-01-27T14:34:17;8.00;99.90
14737;DHT22;7459;53.590;10.062;2024-01-27T14:36:44;8.00;99.90
14737;DHT22;7459;53.590;10.062;2024-01-27T14:39:09;8.00;99.90
14737;DHT22;7459;53.590;10.062;2024-01-27T14:41:37;8.00;99.90
14737;DHT22;7459;53.590;10.062;2024-01-27T14:44:03;8.00;99.90
14737;DHT22;7459;53.590;10.062;2024-01-27T14:46:29;8.10;99.90
14737;DHT22;7459;53.590;10.062;2024-01-27T14:48:54;8.10;99.90
14737;DHT22;7459;53.590;10.062;2024-01-27T14:51:20;8.00;99.90
14737;DHT22;7459;53.590;10.062;2024-01-27T14:53:47;8.00;99.90
14737;DHT22;7459;53.590;10.062;2024-01-27T14:56:14;8.00;99.90
14737;DHT22;7459;53.590;10.062;2024-01-27T14:58:40;8.00;99.90
14737;DHT22;7459;53.590;10.062;2024-01-27T15:01:07;8.00;99.90
14737;DHT22;7459;53.590;10.062;2024-01-27T15:03:33;8.00;99.90
14737;DHT22;7459;53.590;10.062;2024-01-27T15:05:59;8.00;99.90
14737;DHT22;7459;53.590;10.062;2024-01-27T15:08:25;8.00;99.90
14737;DHT22;7459;53.590;10.062;2024-01-27T15:10:51;8.00;99.90
14737;DHT22;7459;53.590;10.062;2024-01-27T15:13:17;8.00;99.90
14737;DHT22;7459;53.590;10.062;2024-01-27T15:15:45;7.90;99.90
14737;DHT22;7459;53.590;10.062;2024-01-27T15:18:11;7.90;99.90
14737;DHT22;7459;53.590;10.062;2024-01-27T15:20:37;7.90;99.90
14737;DHT22;7459;53.590;10.062;2024-01-27T15:23:03;7.90;99.90
14737;DHT22;7459;53.590;10.062;2024-01-27T15:25:29;7.80;99.90
14737;DHT22;7459;53.590;10.062;2024-01-27T15:27:56;7.80;99.90
14737;DHT22;7459;53.590;10.062;2024-01-27T15:30:22;7.80;99.90
14737;DHT22;7459;53.590;10.062;2024-01-27T15:32:48;7.80;99.90
14737;DHT22;7459;53.590;10.062;2024-01-27T15:35:14;7.80;99.90
14737;DHT22;7459;53.590;10.062;2024-01-27T15:37:40;7.80;99.90
14737;DHT22;7459;53.590;10.062;2024-01-27T15:40:07;7.80;99.90